Time;durP1;ratioP1;P1;durP2;ratioP2;P2;SDS_P1;SDS_P2;PMS_P1;PMS_P2;Temp;Humidity;BMP_temperature;BMP_pressure;BME280_temperature;BME280_humidity;BME280_pressure;Samples;Min_cycle;Max_cycle;Signal;HPM_P1;HPM_P2
2023/01/10 00:00:22;;;;;;;4.07;3.43;;;6.40;99.90;;;;;;5081243;28;20205;-75
2023/01/10 00:02:47;;;;;;;7.87;2.43;;;6.50;99.90;;;;;;5081003;28;20175;-74
2023/01/10 00:05:13;;;;;;;4.30;2.20;;;6.60;99.90;;;;;;5093231;28;20427;-74
2023/01/10 00:07:38;;;;;;;6.13;1.80;;;6.60;99.90;;;;;;5103016;28;20189;-75
2023/01/10 00:10:04;;;;;;;7.43;2.00;;;6.60;99.90;;;;;;5100895;28;20192;-74
2023/01/10 00:15:14;;;;;;;13.13;2.50;;;6.70;99.90;;;;;;5090448;28;20279;-74
2023/01/10 00:17:39;;;;;;;4.70;1.90;;;6.70;99.90;;;;;;5073354;28;20440;-73
2023/01/10 00:20:05;;;;;;;5.00;1.70;;;6.70;99.90;;;;;;5078884;28;20251;-73
2023/01/10 00:22:31;;;;;;;3.73;2.27;;;6.80;99.90;;;;;;5089921;28;20904;-75
2023/01/10 00:24:56;;;;;;;6.27;1.63;;;6.70;99.90;;;;;;5101671;28;20165;-75
2023/01/10 00:27:22;;;;;;;8.40;2.00;;;6.70;99.90;;;;;;5101748;28;20178;-74
2023/01/10 00:29:51;;;;;;;3.93;1.80;;;6.80;99.90;;;;;;5086095;28;20245;-74
2023/01/10 00:32:20;;;;;;;4.30;1.77;;;6.80;99.90;;;;;;5076262;28;20777;-73
2023/01/10 00:34:46;;;;;;;4.40;1.87;;;6.80;99.90;;;;;;5073767;28;20750;-73
2023/01/10 00:37:12;;;;;;;12.23;1.73;;;6.90;99.90;;;;;;5073903;28;20420;-73
2023/01/10 00:39:38;;;;;;;3.50;1.60;;;6.90;99.90;;;;;;5073463;28;20221;-73
2023/01/10 00:44:48;;;;;;;9.63;1.53;;;6.90;99.90;;;;;;5075475;28;20260;-74
2023/01/10 00:47:14;;;;;;;7.17;1.90;;;6.90;99.90;;;;;;5074503;28;20428;-74
2023/01/10 00:49:39;;;;;;;2.93;2.10;;;6.80;99.90;;;;;;5080809;28;20491;-75
2023/01/10 00:52:05;;;;;;;5.00;1.70;;;6.90;99.90;;;;;;5074470;28;20201;-73
2023/01/10 00:54:30;;;;;;;5.37;1.70;;;6.90;99.90;;;;;;5073481;28;20174;-74
2023/01/10 00:56:56;;;;;;;5.40;1.90;;;6.90;99.90;;;;;;5079646;28;20190;-75
2023/01/10 00:59:22;;;;;;;11.03;2.83;;;6.90;99.90;;;;;;5088753;28;20284;-73
2023/01/10 01:01:49;;;;;;;6.37;1.80;;;6.90;99.90;;;;;;5093693;28;20193;-73
2023/01/10 01:04:14;;;;;;;11.90;3.07;;;6.90;99.90;;;;;;5093483;28;20461;-74
2023/01/10 01:06:46;;;;;;;3.10;1.40;;;7.00;99.90;;;;;;5093690;28;20427;-74
2023/01/10 01:09:12;;;;;;;7.37;2.70;;;7.00;99.90;;;;;;5094943;28;20161;-75
2023/01/10 01:11:38;;;;;;;5.93;1.60;;;7.00;99.90;;;;;;5089789;28;20515;-74
2023/01/10 01:14:04;;;;;;;2.43;1.83;;;7.00;99.90;;;;;;5074084;28;20461;-73
2023/01/10 01:16:29;;;;;;;2.53;1.60;;;7.00;99.90;;;;;;5072883;28;20424;-73
2023/01/10 01:18:56;;;;;;;5.43;2.00;;;7.10;99.90;;;;;;5071838;28;20202;-73
2023/01/10 01:21:26;;;;;;;4.40;1.33;;;7.00;99.90;;;;;;5078546;28;20217;-73
2023/01/10 01:23:55;;;;;;;5.37;1.50;;;7.00;99.90;;;;;;5093340;28;20768;-72
2023/01/10 01:26:22;;;;;;;2.90;1.73;;;6.90;99.90;;;;;;5096710;28;20549;-73
2023/01/10 01:28:47;;;;;;;6.03;1.47;;;6.80;99.90;;;;;;5105814;28;20463;-74
2023/01/10 01:31:13;;;;;;;2.70;1.00;;;6.80;99.90;;;;;;5104097;28;20424;-73
2023/01/10 01:33:39;;;;;;;13.77;2.77;;;6.80;99.90;;;;;;5077446;28;20233;-73
2023/01/10 01:36:13;;;;;;;4.23;1.90;;;6.80;99.90;;;;;;5072508;28;20194;-73
2023/01/10 01:38:41;;;;;;;4.83;1.80;;;6.80;99.90;;;;;;5091021;28;20292;-73
2023/01/10 01:41:55;;;;;;;6.50;2.33;;;6.80;99.90;;;;;;5092685;28;20418;-73
2023/01/10 01:44:06;;;;;;;7.17;2.47;;;6.60;99.90;;;;;;5095750;28;20885;-74
2023/01/10 01:46:34;;;;;;;4.07;1.70;;;6.60;99.90;;;;;;5097748;28;20430;-74
2023/01/10 01:49:02;;;;;;;7.43;1.50;;;6.60;99.90;;;;;;5094881;28;20423;-74
2023/01/10 01:51:29;;;;;;;2.63;1.27;;;6.60;99.90;;;;;;5084704;28;20447;-74
2023/01/10 01:54:06;;;;;;;4.10;2.00;;;6.60;99.90;;;;;;5072755;28;20400;-73
2023/01/10 01:56:41;;;;;;;9.00;1.57;;;6.60;99.90;;;;;;5072496;28;20853;-75
2023/01/10 01:59:18;;;;;;;3.60;1.23;;;6.60;99.90;;;;;;5105929;28;20456;-73
2023/01/10 02:01:47;;;;;;;6.57;1.80;;;6.60;99.90;;;;;;5075175;28;20424;-73
2023/01/10 02:04:18;;;;;;;3.97;1.60;;;6.50;99.90;;;;;;5085489;28;20416;-74
2023/01/10 02:06:46;;;;;;;8.83;2.43;;;6.60;99.90;;;;;;5074428;28;20436;-74
2023/01/10 02:09:23;;;;;;;5.43;1.60;;;6.60;99.90;;;;;;5073093;28;20482;-74
2023/01/10 02:11:49;;;;;;;9.20;2.20;;;6.60;99.90;;;;;;5073140;28;20404;-74
2023/01/10 02:14:15;;;;;;;4.87;2.10;;;6.50;99.90;;;;;;5083024;28;20419;-74
2023/01/10 02:16:40;;;;;;;8.30;2.00;;;6.50;99.90;;;;;;5097898;28;20488;-74
2023/01/10 02:19:22;;;;;;;4.43;1.70;;;6.40;99.90;;;;;;5095044;28;20451;-72
2023/01/10 02:22:25;;;;;;;7.83;2.37;;;6.40;99.90;;;;;;5091101;28;20533;-73
2023/01/10 02:25:06;;;;;;;8.27;2.50;;;6.20;99.90;;;;;;5086218;28;20569;-72
2023/01/10 02:27:58;;;;;;;5.60;2.00;;;6.10;99.90;;;;;;5089701;28;20423;-75
2023/01/10 02:30:24;;;;;;;5.30;2.00;;;6.10;99.90;;;;;;5092326;28;20441;-73
2023/01/10 02:33:03;;;;;;;7.70;1.80;;;6.10;99.90;;;;;;5096241;28;20396;-73
2023/01/10 02:35:50;;;;;;;3.37;1.90;;;6.20;99.90;;;;;;5098825;28;20219;-74
2023/01/10 02:38:35;;;;;;;6.10;3.63;;;6.20;99.90;;;;;;5091110;28;20546;-73
2023/01/10 02:41:34;;;;;;;5.97;2.27;;;6.30;99.90;;;;;;5092117;28;20396;-73
2023/01/10 02:44:03;;;;;;;5.90;2.13;;;6.20;99.90;;;;;;5092259;28;20395;-74
2023/01/10 02:46:31;;;;;;;4.13;1.53;;;6.20;99.90;;;;;;5092327;28;20494;-75
2023/01/10 02:48:57;;;;;;;4.10;2.20;;;6.20;99.90;;;;;;5077601;28;20458;-73
2023/01/10 02:51:28;;;;;;;3.57;1.20;;;6.20;99.90;;;;;;5071858;28;20396;-73
2023/01/10 02:53:59;;;;;;;6.57;2.47;;;6.20;99.90;;;;;;5085585;28;20243;-73
2023/01/10 02:56:36;;;;;;;12.00;3.77;;;6.30;99.90;;;;;;5091764;28;20437;-73
2023/01/10 02:59:20;;;;;;;13.83;2.07;;;6.30;99.90;;;;;;5083069;28;20456;-73
2023/01/10 03:02:00;;;;;;;2.97;1.40;;;6.30;99.90;;;;;;5071977;28;20447;-74
2023/01/10 03:04:46;;;;;;;6.80;1.70;;;6.30;99.90;;;;;;5072674;28;20980;-74
2023/01/10 03:07:26;;;;;;;9.57;2.20;;;6.10;99.90;;;;;;5075643;28;20435;-72
2023/01/10 03:10:01;;;;;;;7.03;1.77;;;6.00;99.90;;;;;;5078394;28;20419;-73
2023/01/10 03:12:55;;;;;;;8.70;2.13;;;5.90;99.90;;;;;;5097770;28;20426;-74
2023/01/10 03:15:23;;;;;;;3.30;1.30;;;5.90;99.90;;;;;;5094428;28;20453;-74
2023/01/10 03:17:54;;;;;;;4.27;1.97;;;5.80;99.90;;;;;;5096010;28;20522;-75
2023/01/10 03:20:22;;;;;;;11.37;2.80;;;5.80;99.90;;;;;;5102830;28;20423;-74
2023/01/10 03:22:47;;;;;;;4.80;2.40;;;5.80;99.90;;;;;;5094819;28;20501;-73
2023/01/10 03:25:16;;;;;;;5.13;1.80;;;5.80;99.90;;;;;;5073882;28;20462;-73
2023/01/10 03:27:50;;;;;;;8.23;2.00;;;5.70;99.90;;;;;;5075413;28;20420;-73
2023/01/10 03:30:45;;;;;;;2.37;1.30;;;5.80;99.90;;;;;;5076879;28;20998;-74
2023/01/10 03:33:15;;;;;;;5.30;1.80;;;5.80;99.90;;;;;;5096692;28;20422;-74
2023/01/10 03:36:05;;;;;;;2.97;1.70;;;5.80;99.90;;;;;;5096212;28;20392;-73
2023/01/10 03:38:43;;;;;;;8.23;1.93;;;5.80;99.90;;;;;;5098892;28;20459;-73
2023/01/10 03:41:12;;;;;;;6.37;1.53;;;5.70;99.90;;;;;;5110915;28;20406;-73
2023/01/10 03:46:53;;;;;;;2.40;1.70;;;5.70;99.90;;;;;;5076370;28;21067;-73
2023/01/10 03:49:21;;;;;;;2.70;1.53;;;5.70;99.90;;;;;;5078166;28;20412;-73
2023/01/10 03:51:47;;;;;;;13.00;5.40;;;5.60;99.90;;;;;;5085290;28;20427;-74
2023/01/10 03:54:15;;;;;;;11.00;2.10;;;5.60;99.90;;;;;;5096672;28;20437;-73
2023/01/10 03:56:48;;;;;;;6.57;1.70;;;5.50;99.90;;;;;;5081251;28;20444;-74
2023/01/10 03:59:20;;;;;;;5.90;2.33;;;5.60;99.90;;;;;;5073997;28;20824;-74
2023/01/10 04:01:45;;;;;;;6.80;3.27;;;5.60;99.90;;;;;;5086015;28;20510;-74
2023/01/10 04:04:11;;;;;;;2.13;1.20;;;5.60;99.90;;;;;;5100269;28;20997;-73
2023/01/10 04:06:36;;;;;;;12.37;4.93;;;5.60;99.90;;;;;;5098150;28;20189;-74
2023/01/10 04:09:02;;;;;;;3.57;2.07;;;5.60;99.90;;;;;;5097579;28;20537;-74
2023/01/10 04:11:28;;;;;;;9.07;2.23;;;5.50;99.90;;;;;;5094461;28;20169;-74
2023/01/10 04:13:53;;;;;;;6.00;1.80;;;5.50;99.90;;;;;;5095607;28;20209;-73
2023/01/10 04:16:19;;;;;;;3.23;1.70;;;5.50;99.90;;;;;;5095981;28;20287;-74
2023/01/10 04:18:44;;;;;;;4.10;2.00;;;5.50;99.90;;;;;;5100258;28;20181;-74
2023/01/10 04:21:10;;;;;;;3.07;1.80;;;5.50;99.90;;;;;;5092057;28;20698;-72
2023/01/10 04:23:36;;;;;;;12.23;2.00;;;5.50;99.90;;;;;;5074187;28;20223;-73
2023/01/10 04:26:01;;;;;;;4.70;1.60;;;5.50;99.90;;;;;;5074572;28;20213;-74
2023/01/10 04:28:27;;;;;;;4.77;1.60;;;5.50;99.90;;;;;;5077484;28;20191;-74
2023/01/10 04:30:52;;;;;;;11.00;2.90;;;5.60;99.90;;;;;;5074888;28;20178;-73
2023/01/10 04:33:18;;;;;;;9.10;3.10;;;5.70;99.90;;;;;;5073601;28;20253;-73
2023/01/10 04:35:51;;;;;;;19.47;3.47;;;5.70;99.90;;;;;;5089918;28;20181;-73
2023/01/10 04:38:17;;;;;;;6.10;2.70;;;5.80;99.90;;;;;;5097165;28;20279;-75
2023/01/10 04:40:43;;;;;;;8.50;2.03;;;5.90;99.90;;;;;;5096870;28;20445;-73
2023/01/10 04:43:10;;;;;;;8.20;1.50;;;5.90;99.90;;;;;;5094178;28;20989;-72
2023/01/10 04:45:36;;;;;;;6.93;2.50;;;6.00;99.90;;;;;;5077751;28;20421;-73
2023/01/10 04:48:01;;;;;;;6.77;2.43;;;6.00;99.90;;;;;;5076050;28;20968;-74
2023/01/10 04:50:27;;;;;;;7.50;2.17;;;6.00;99.90;;;;;;5102512;28;20407;-73
2023/01/10 04:52:53;;;;;;;6.53;1.90;;;6.00;99.90;;;;;;5095566;28;20177;-74
2023/01/10 04:55:18;;;;;;;6.40;2.30;;;6.00;99.90;;;;;;5090095;28;20174;-74
2023/01/10 04:57:44;;;;;;;7.63;2.60;;;5.90;99.90;;;;;;5080263;28;20190;-73
2023/01/10 05:00:11;;;;;;;7.67;2.17;;;5.90;99.90;;;;;;5093776;28;20697;-73
2023/01/10 05:02:42;;;;;;;8.07;2.37;;;5.90;99.90;;;;;;5093822;28;20158;-73
2023/01/10 05:05:14;;;;;;;5.63;2.70;;;5.90;99.90;;;;;;5093920;28;20403;-75
2023/01/10 05:07:40;;;;;;;14.87;2.13;;;5.90;99.90;;;;;;5079109;28;20463;-74
2023/01/10 05:10:07;;;;;;;7.23;2.60;;;5.90;99.90;;;;;;5073738;28;20413;-75
2023/01/10 05:12:33;;;;;;;12.53;2.87;;;6.00;99.90;;;;;;5075765;28;20170;-73
2023/01/10 05:14:58;;;;;;;9.90;4.80;;;5.90;99.90;;;;;;5073458;28;20424;-73
2023/01/10 05:17:25;;;;;;;15.80;2.27;;;6.00;99.90;;;;;;5077127;28;20432;-73
2023/01/10 05:19:50;;;;;;;5.50;1.77;;;6.00;99.90;;;;;;5092850;28;20202;-73
2023/01/10 05:22:16;;;;;;;5.73;2.10;;;5.90;99.90;;;;;;5086980;28;20423;-75
2023/01/10 05:24:41;;;;;;;3.40;1.47;;;5.90;99.90;;;;;;5073085;28;20170;-74
2023/01/10 05:27:07;;;;;;;12.50;2.60;;;5.80;99.90;;;;;;5073741;28;20682;-72
2023/01/10 05:29:33;;;;;;;6.10;2.00;;;5.70;99.90;;;;;;5072777;28;20212;-73
2023/01/10 05:31:59;;;;;;;6.40;2.30;;;5.70;99.90;;;;;;5093573;28;20574;-74
2023/01/10 05:34:24;;;;;;;5.10;2.83;;;5.50;99.90;;;;;;5093133;28;20503;-75
2023/01/10 05:36:50;;;;;;;4.90;1.70;;;5.50;99.90;;;;;;5093731;28;20185;-75
2023/01/10 05:39:15;;;;;;;4.17;2.07;;;5.40;99.90;;;;;;5093562;28;20201;-75
2023/01/10 05:41:41;;;;;;;5.83;2.07;;;5.40;99.90;;;;;;5091282;28;20223;-74
2023/01/10 05:44:06;;;;;;;8.90;2.27;;;5.30;99.90;;;;;;5073005;28;20624;-75
2023/01/10 05:46:32;;;;;;;7.33;1.70;;;5.30;99.90;;;;;;5071660;28;20608;-75
2023/01/10 05:48:58;;;;;;;10.90;2.50;;;5.20;99.90;;;;;;5073554;28;20185;-75
2023/01/10 05:51:23;;;;;;;6.10;1.67;;;5.20;99.90;;;;;;5072300;28;20636;-75
2023/01/10 05:53:49;;;;;;;10.37;2.10;;;5.10;99.90;;;;;;5072564;28;20219;-74
2023/01/10 05:56:14;;;;;;;10.77;2.17;;;5.10;99.90;;;;;;5073254;28;20267;-74
2023/01/10 05:58:40;;;;;;;13.13;2.30;;;5.00;99.90;;;;;;5073635;28;20194;-74
2023/01/10 06:01:06;;;;;;;6.97;1.77;;;5.00;99.90;;;;;;5085067;28;20226;-74
2023/01/10 06:03:31;;;;;;;8.13;2.40;;;4.90;99.90;;;;;;5119778;27;20256;-74
2023/01/10 06:05:57;;;;;;;11.47;2.80;;;4.90;99.90;;;;;;5093416;28;20157;-74
2023/01/10 06:08:23;;;;;;;8.53;2.73;;;4.90;99.90;;;;;;5093558;28;20168;-74
2023/01/10 06:10:49;;;;;;;10.73;2.30;;;4.80;99.90;;;;;;5088817;28;20170;-74
2023/01/10 06:13:14;;;;;;;6.93;2.77;;;4.70;99.90;;;;;;5073581;28;20491;-74
2023/01/10 06:15:40;;;;;;;8.50;2.70;;;4.80;99.90;;;;;;5073260;28;20173;-75
2023/01/10 06:18:06;;;;;;;9.13;2.77;;;4.80;99.90;;;;;;5073622;28;20174;-75
2023/01/10 06:20:32;;;;;;;10.13;2.43;;;4.80;99.90;;;;;;5073309;28;20166;-75
2023/01/10 06:22:59;;;;;;;5.90;1.50;;;4.80;99.90;;;;;;5088456;28;20936;-75
2023/01/10 06:25:26;;;;;;;10.23;2.20;;;4.80;99.90;;;;;;5093128;28;20158;-75
2023/01/10 06:27:51;;;;;;;5.90;1.73;;;4.80;99.90;;;;;;5092283;28;20428;-75
2023/01/10 06:30:17;;;;;;;4.93;1.70;;;4.80;99.90;;;;;;5093517;28;20423;-75
2023/01/10 06:32:43;;;;;;;17.30;2.63;;;4.80;99.90;;;;;;5090046;28;20182;-75
2023/01/10 06:35:09;;;;;;;17.40;1.80;;;4.80;99.90;;;;;;5073018;28;20170;-75
2023/01/10 06:37:35;;;;;;;4.23;2.40;;;4.70;99.90;;;;;;5073082;28;20206;-75
2023/01/10 06:40:00;;;;;;;5.70;2.00;;;4.70;99.90;;;;;;5072501;28;20455;-75
2023/01/10 06:42:26;;;;;;;9.63;2.83;;;4.70;99.90;;;;;;5073254;28;20174;-75
2023/01/10 06:44:51;;;;;;;4.67;2.07;;;4.70;99.90;;;;;;5072237;28;20166;-75
2023/01/10 06:47:17;;;;;;;8.10;1.80;;;4.70;99.90;;;;;;5071932;28;20583;-75
2023/01/10 06:49:43;;;;;;;3.47;1.53;;;4.70;99.90;;;;;;5071671;28;20181;-75
2023/01/10 06:52:08;;;;;;;5.20;1.80;;;4.70;99.90;;;;;;5073335;28;20185;-76
2023/01/10 06:54:34;;;;;;;5.70;2.77;;;4.70;99.90;;;;;;5071866;28;20572;-75
2023/01/10 06:56:59;;;;;;;15.37;2.80;;;4.60;99.90;;;;;;5080289;28;20201;-75
2023/01/10 06:59:24;;;;;;;8.13;2.60;;;4.60;99.90;;;;;;5091736;28;20201;-75
2023/01/10 07:01:50;;;;;;;7.30;2.20;;;4.60;99.90;;;;;;5093162;28;20176;-75
2023/01/10 07:04:16;;;;;;;8.50;2.67;;;4.60;99.90;;;;;;5087572;28;20206;-75
2023/01/10 07:06:41;;;;;;;12.93;2.13;;;4.60;99.90;;;;;;5084542;28;20197;-75
2023/01/10 07:09:08;;;;;;;9.47;2.73;;;4.50;99.90;;;;;;5093001;28;20627;-75
2023/01/10 07:11:34;;;;;;;5.87;2.10;;;4.50;99.90;;;;;;5091893;28;20230;-75
2023/01/10 07:14:00;;;;;;;10.47;2.57;;;4.50;99.90;;;;;;5104993;28;20414;-74
2023/01/10 07:16:26;;;;;;;13.57;1.97;;;4.50;99.90;;;;;;5091415;28;20522;-75
2023/01/10 07:18:52;;;;;;;10.83;3.00;;;4.50;99.90;;;;;;5091234;28;20581;-75
2023/01/10 07:21:18;;;;;;;14.60;2.80;;;4.40;99.90;;;;;;5092314;28;20399;-73
2023/01/10 07:23:49;;;;;;;10.30;2.00;;;4.50;99.90;;;;;;5086911;28;20178;-75
2023/01/10 07:26:17;;;;;;;14.67;1.77;;;4.40;99.90;;;;;;5071785;28;20420;-75
2023/01/10 07:28:44;;;;;;;5.03;2.50;;;4.40;99.90;;;;;;5085530;28;20427;-75
2023/01/10 07:31:10;;;;;;;6.50;2.00;;;4.50;99.90;;;;;;5093162;28;20399;-75
2023/01/10 07:33:36;;;;;;;12.23;2.40;;;4.40;99.90;;;;;;5076331;28;20420;-73
2023/01/10 07:36:01;;;;;;;3.87;1.60;;;4.50;99.90;;;;;;5072319;28;20547;-73
2023/01/10 07:38:27;;;;;;;12.57;2.50;;;4.40;99.90;;;;;;5071675;28;20209;-73
2023/01/10 07:40:53;;;;;;;18.27;2.97;;;4.50;99.90;;;;;;5072795;28;20163;-74
2023/01/10 07:43:18;;;;;;;19.03;3.20;;;4.50;99.90;;;;;;5084360;28;20832;-74
2023/01/10 07:45:44;;;;;;;8.83;2.27;;;4.50;99.90;;;;;;5092413;28;20692;-74
2023/01/10 07:48:10;;;;;;;8.50;2.10;;;4.60;99.90;;;;;;5075465;28;20516;-73
2023/01/10 07:50:36;;;;;;;14.77;2.50;;;4.60;99.90;;;;;;5072823;28;20166;-74
2023/01/10 07:53:03;;;;;;;5.70;1.93;;;4.60;99.90;;;;;;5075461;28;20617;-74
2023/01/10 07:55:30;;;;;;;8.83;2.60;;;4.60;99.90;;;;;;5076241;28;20780;-73
2023/01/10 07:57:56;;;;;;;18.50;2.83;;;4.70;99.90;;;;;;5075207;28;20412;-74
2023/01/10 08:00:21;;;;;;;14.47;2.50;;;4.70;99.90;;;;;;5075358;28;20792;-73
2023/01/10 08:02:51;;;;;;;4.33;2.30;;;4.80;99.90;;;;;;5075451;28;20889;-73
2023/01/10 08:05:16;;;;;;;10.97;2.40;;;4.90;99.90;;;;;;5085738;28;20255;-74
2023/01/10 08:07:42;;;;;;;7.77;2.73;;;5.00;99.90;;;;;;5095456;28;20981;-74
2023/01/10 08:10:08;;;;;;;18.43;2.47;;;5.10;99.90;;;;;;5094257;28;20189;-74
2023/01/10 08:12:34;;;;;;;7.70;3.13;;;5.10;99.90;;;;;;5094279;28;20566;-74
2023/01/10 08:14:59;;;;;;;8.00;2.20;;;5.20;99.90;;;;;;5095347;28;20412;-74
2023/01/10 08:17:25;;;;;;;8.97;3.23;;;5.30;99.90;;;;;;5090317;28;20225;-74
2023/01/10 08:19:50;;;;;;;7.60;2.10;;;5.40;99.90;;;;;;5105236;28;20234;-74
2023/01/10 08:22:16;;;;;;;9.47;3.37;;;5.70;99.90;;;;;;5095726;28;20166;-74
2023/01/10 08:24:41;;;;;;;8.63;3.00;;;6.00;99.90;;;;;;5095199;28;20165;-74
2023/01/10 08:27:07;;;;;;;6.73;1.73;;;6.40;99.90;;;;;;5094688;28;20686;-74
2023/01/10 08:29:33;;;;;;;6.47;2.40;;;6.80;99.90;;;;;;5094453;28;20170;-74
2023/01/10 08:31:58;;;;;;;15.27;2.77;;;7.40;99.90;;;;;;5095523;28;20180;-74
2023/01/10 08:34:24;;;;;;;5.30;2.20;;;7.80;99.90;;;;;;5095283;28;20169;-74
2023/01/10 08:36:51;;;;;;;11.13;3.67;;;8.30;99.90;;;;;;5079945;28;20194;-74
2023/01/10 08:39:17;;;;;;;8.73;2.27;;;8.90;99.90;;;;;;5094702;28;20451;-74
2023/01/10 08:41:43;;;;;;;10.07;2.30;;;9.50;99.90;;;;;;5095216;28;20404;-74
2023/01/10 08:44:10;;;;;;;8.17;2.80;;;9.80;99.90;;;;;;5094843;28;20404;-74
2023/01/10 08:46:37;;;;;;;7.53;2.50;;;10.00;99.90;;;;;;5094571;28;20181;-74
2023/01/10 08:49:02;;;;;;;6.10;2.63;;;10.00;99.90;;;;;;5094871;28;20447;-74
2023/01/10 08:51:28;;;;;;;16.10;2.70;;;9.90;99.90;;;;;;5095277;28;20404;-74
2023/01/10 08:53:53;;;;;;;12.37;3.00;;;10.20;99.90;;;;;;5083832;28;20174;-73
2023/01/10 08:56:19;;;;;;;10.07;1.93;;;10.80;99.90;;;;;;5074326;28;20269;-74
2023/01/10 08:58:44;;;;;;;8.50;2.17;;;11.20;99.90;;;;;;5092949;28;20196;-74
2023/01/10 09:01:11;;;;;;;10.93;2.60;;;11.60;99.90;;;;;;5085058;28;20170;-74
2023/01/10 09:03:38;;;;;;;14.00;3.10;;;12.20;99.90;;;;;;5072181;28;20166;-74
2023/01/10 09:06:04;;;;;;;3.80;1.90;;;12.70;99.90;;;;;;5072963;28;20485;-74
2023/01/10 09:08:30;;;;;;;7.43;2.90;;;13.70;99.90;;;;;;5074176;28;20408;-74
2023/01/10 09:10:59;;;;;;;7.73;4.67;;;14.20;99.90;;;;;;5073314;28;20575;-74
2023/01/10 09:13:25;;;;;;;10.60;2.23;;;13.80;99.90;;;;;;5073936;28;20158;-74
2023/01/10 09:15:51;;;;;;;8.63;2.87;;;14.00;99.90;;;;;;5071212;28;20416;-74
2023/01/10 09:18:17;;;;;;;10.47;2.53;;;14.70;99.90;;;;;;5072561;28;20503;-74
2023/01/10 09:20:44;;;;;;;7.97;2.53;;;15.30;95.30;;;;;;5074433;28;20553;-74
2023/01/10 09:23:16;;;;;;;6.77;2.60;;;15.70;93.80;;;;;;5086387;28;20411;-74
2023/01/10 09:25:42;;;;;;;6.43;2.57;;;16.00;88.00;;;;;;5080412;28;20424;-74
2023/01/10 09:28:07;;;;;;;7.50;2.97;;;16.30;91.10;;;;;;5073808;28;20897;-74
2023/01/10 09:30:33;;;;;;;3.83;1.97;;;16.80;80.50;;;;;;5090876;28;20180;-75
2023/01/10 09:32:59;;;;;;;8.87;2.33;;;17.40;80.90;;;;;;5100310;27;20653;-74
2023/01/10 09:35:26;;;;;;;6.87;2.10;;;17.70;69.60;;;;;;5092677;28;20170;-74
2023/01/10 09:37:56;;;;;;;9.27;3.37;;;18.30;68.00;;;;;;5093485;28;20447;-74
2023/01/10 09:40:46;;;;;;;4.87;2.23;;;19.10;70.20;;;;;;5092608;28;20851;-73
2023/01/10 09:43:40;;;;;;;7.13;3.10;;;19.40;60.90;;;;;;5093554;28;20395;-75
2023/01/10 09:46:19;;;;;;;8.83;3.10;;;19.50;59.10;;;;;;5090690;28;20481;-76
2023/01/10 09:49:01;;;;;;;6.47;2.13;;;19.80;58.90;;;;;;5073488;28;20982;-75
2023/01/10 09:51:47;;;;;;;4.50;2.10;;;18.90;57.20;;;;;;5105867;28;20413;-73
2023/01/10 09:54:21;;;;;;;13.13;3.20;;;18.60;57.60;;;;;;5088011;28;20411;-73
2023/01/10 09:56:47;;;;;;;8.47;3.20;;;17.50;57.40;;;;;;5092483;28;20420;-73
2023/01/10 09:59:17;;;;;;;10.03;3.17;;;17.20;58.80;;;;;;5089572;28;20530;-73
2023/01/10 10:01:45;;;;;;;7.67;2.20;;;16.60;60.30;;;;;;5072091;28;20158;-73
2023/01/10 10:04:21;;;;;;;9.10;2.70;;;16.50;62.70;;;;;;5072336;28;20397;-73
2023/01/10 10:06:49;;;;;;;8.37;2.50;;;16.30;64.10;;;;;;5086885;28;20982;-73
2023/01/10 10:09:20;;;;;;;7.53;2.63;;;16.50;64.60;;;;;;5092350;28;20411;-74
2023/01/10 10:11:57;;;;;;;6.10;1.87;;;16.70;65.20;;;;;;5092377;28;20437;-74
2023/01/10 10:14:37;;;;;;;8.50;2.23;;;17.00;65.80;;;;;;5091846;28;20438;-73
2023/01/10 10:17:26;;;;;;;5.23;2.33;;;17.00;62.10;;;;;;5075721;28;20444;-73
2023/01/10 10:20:04;;;;;;;9.87;2.97;;;17.20;63.30;;;;;;5051188;28;20866;-73
2023/01/10 10:22:53;;;;;;;7.23;2.00;;;16.70;62.10;;;;;;5080107;28;20415;-73
2023/01/10 10:26:01;;;;;;;10.33;1.80;;;16.80;62.90;;;;;;5091548;28;20396;-73
2023/01/10 10:28:45;;;;;;;11.33;2.63;;;17.20;64.80;;;;;;5076819;28;20444;-73
2023/01/10 10:31:25;;;;;;;3.70;1.80;;;18.00;63.00;;;;;;5071879;28;20407;-73
2023/01/10 10:34:35;;;;;;;11.67;2.43;;;18.30;61.10;;;;;;5071646;28;20445;-73
2023/01/10 10:37:25;;;;;;;7.23;2.30;;;18.60;60.40;;;;;;5100021;28;20924;-73
2023/01/10 10:40:06;;;;;;;5.47;1.73;;;19.10;59.30;;;;;;5091015;28;20455;-73
2023/01/10 10:42:38;;;;;;;8.40;2.50;;;19.20;57.20;;;;;;5091945;28;20410;-73
2023/01/10 10:45:39;;;;;;;4.27;2.27;;;19.40;56.40;;;;;;5091368;28;20406;-73
2023/01/10 10:48:34;;;;;;;5.43;2.07;;;19.70;56.30;;;;;;5091808;28;20831;-73
2023/01/10 10:51:08;;;;;;;4.13;1.50;;;20.50;56.60;;;;;;5090713;28;20411;-72
2023/01/10 10:53:35;;;;;;;7.23;2.50;;;20.70;55.80;;;;;;5071511;28;20920;-73
2023/01/10 10:56:03;;;;;;;6.53;1.97;;;20.70;53.40;;;;;;5079197;28;20439;-72
2023/01/10 10:58:30;;;;;;;9.13;2.70;;;21.10;53.80;;;;;;5091559;28;20418;-72
2023/01/10 11:00:57;;;;;;;5.80;2.83;;;21.40;52.90;;;;;;5091674;28;20402;-73
2023/01/10 11:03:59;;;;;;;6.80;2.23;;;21.30;52.00;;;;;;5087410;28;20896;-72
2023/01/10 11:06:28;;;;;;;6.60;2.60;;;20.80;51.50;;;;;;5071150;28;20416;-74
2023/01/10 11:08:57;;;;;;;6.03;2.90;;;19.70;51.80;;;;;;5071420;28;20436;-73
2023/01/10 11:11:38;;;;;;;9.77;2.70;;;18.90;53.00;;;;;;5072072;28;20985;-75
2023/01/10 11:14:06;;;;;;;7.93;2.10;;;18.40;53.60;;;;;;5072625;28;20882;-75
2023/01/10 11:16:38;;;;;;;7.77;2.40;;;16.90;53.90;;;;;;5073754;28;20495;-74
2023/01/10 11:19:26;;;;;;;6.33;3.37;;;16.40;56.20;;;;;;5073752;28;20451;-74
2023/01/10 11:21:51;;;;;;;9.77;2.30;;;15.60;58.40;;;;;;5074134;28;20412;-74
2023/01/10 11:24:28;;;;;;;7.03;2.00;;;15.10;60.50;;;;;;5093398;28;20392;-74
2023/01/10 11:26:56;;;;;;;5.03;2.30;;;14.60;63.40;;;;;;5093740;28;20215;-74
2023/01/10 11:29:42;;;;;;;7.70;2.83;;;13.90;64.70;;;;;;5082696;28;20419;-75
2023/01/10 11:32:14;;;;;;;6.10;2.00;;;14.00;72.20;;;;;;5097506;28;20391;-73
2023/01/10 11:34:46;;;;;;;6.40;1.80;;;13.90;76.10;;;;;;5094994;28;20431;-73
2023/01/10 11:37:19;;;;;;;7.30;2.93;;;13.70;77.80;;;;;;5095106;28;20923;-73
2023/01/10 11:39:45;;;;;;;5.97;1.93;;;13.50;85.30;;;;;;5087002;28;20447;-73
2023/01/10 11:42:23;;;;;;;7.73;1.53;;;13.30;91.20;;;;;;5074808;28;20408;-73
2023/01/10 11:44:48;;;;;;;8.13;1.90;;;13.30;91.30;;;;;;5074536;28;20166;-73
2023/01/10 11:47:19;;;;;;;9.40;1.67;;;13.30;92.30;;;;;;5093214;28;20494;-73
2023/01/10 11:49:46;;;;;;;3.77;1.90;;;13.30;92.50;;;;;;5099026;28;20170;-73
2023/01/10 11:52:32;;;;;;;6.67;1.70;;;13.60;93.30;;;;;;5089421;28;20581;-73
2023/01/10 11:54:59;;;;;;;5.33;1.50;;;13.60;90.10;;;;;;5091270;28;20521;-73
2023/01/10 11:57:30;;;;;;;6.50;3.13;;;13.50;92.60;;;;;;5074555;28;20423;-73
2023/01/10 12:00:01;;;;;;;7.77;1.60;;;13.50;92.00;;;;;;5086217;28;20458;-73
2023/01/10 12:02:30;;;;;;;3.27;1.73;;;13.60;92.40;;;;;;5094680;28;20392;-73
2023/01/10 12:05:00;;;;;;;6.30;2.20;;;13.70;91.40;;;;;;5094523;28;20794;-72
2023/01/10 12:07:26;;;;;;;9.37;2.30;;;13.90;91.70;;;;;;5094602;28;20463;-72
2023/01/10 12:10:00;;;;;;;8.80;3.17;;;13.90;91.00;;;;;;5083465;28;20459;-73
2023/01/10 12:12:34;;;;;;;6.07;1.37;;;13.80;91.00;;;;;;5074272;28;20533;-73
2023/01/10 12:15:37;;;;;;;4.57;1.63;;;13.40;92.70;;;;;;5073995;28;20401;-73
2023/01/10 12:18:05;;;;;;;5.43;2.13;;;13.30;96.10;;;;;;5052104;28;20853;-73
2023/01/10 12:20:35;;;;;;;13.47;2.53;;;13.00;97.50;;;;;;5051511;28;20531;-73
2023/01/10 12:23:06;;;;;;;6.27;2.03;;;12.80;99.90;;;;;;5055980;28;20432;-73
2023/01/10 12:25:36;;;;;;;4.87;1.70;;;12.60;99.90;;;;;;5074125;28;20440;-73
2023/01/10 12:28:02;;;;;;;4.53;1.67;;;12.40;99.90;;;;;;5074250;28;20424;-73
2023/01/10 12:30:35;;;;;;;17.53;2.07;;;12.30;99.90;;;;;;5075782;28;20412;-73
2023/01/10 12:33:13;;;;;;;7.50;2.30;;;12.10;99.90;;;;;;5074178;28;20396;-73
2023/01/10 12:35:49;;;;;;;10.13;2.40;;;11.70;99.90;;;;;;5074026;28;20914;-72
2023/01/10 12:44:34;;;;;;;9.43;2.67;;;11.20;99.90;;;;;;5093992;28;20420;-71
2023/01/10 12:47:04;;;;;;;4.67;1.70;;;10.70;99.90;;;;;;5094140;28;20450;-72
2023/01/10 12:49:34;;;;;;;4.73;1.93;;;10.70;99.90;;;;;;5084520;28;20419;-72
2023/01/10 12:52:07;;;;;;;6.67;2.07;;;10.50;99.90;;;;;;5073955;28;20392;-71
2023/01/10 12:54:32;;;;;;;9.00;2.13;;;10.30;99.90;;;;;;5073575;28;20400;-72
2023/01/10 12:57:01;;;;;;;6.13;1.83;;;10.30;99.90;;;;;;5073657;28;20427;-73
2023/01/10 12:59:41;;;;;;;3.67;1.70;;;10.30;99.90;;;;;;5095443;28;20223;-73
2023/01/10 13:02:17;;;;;;;9.03;2.60;;;10.20;99.90;;;;;;5094034;28;20764;-72
2023/01/10 13:04:47;;;;;;;7.00;2.57;;;10.10;99.90;;;;;;5093586;28;20404;-72
2023/01/10 13:07:14;;;;;;;10.30;1.77;;;10.10;99.90;;;;;;5093725;28;20419;-73
2023/01/10 13:09:41;;;;;;;4.90;1.80;;;10.10;99.90;;;;;;5080518;28;20420;-72
2023/01/10 13:12:35;;;;;;;4.13;1.50;;;10.20;99.90;;;;;;5073389;28;20553;-72
2023/01/10 13:15:18;;;;;;;4.27;1.80;;;10.00;99.90;;;;;;5073243;28;20411;-72
2023/01/10 13:17:51;;;;;;;4.77;2.03;;;10.00;99.90;;;;;;5072065;28;20428;-72
2023/01/10 13:20:27;;;;;;;9.47;1.60;;;10.00;99.90;;;;;;5091215;28;20447;-72